Time;durP1;ratioP1;P1;durP2;ratioP2;P2;SDS_P1;SDS_P2;PMS_P1;PMS_P2;Temp;Humidity;BMP_temperature;BMP_pressure;BME280_temperature;BME280_humidity;BME280_pressure;Samples;Min_cycle;Max_cycle;Signal;HPM_P1;HPM_P2
2022/02/10 00:04:57;;;;;;;50.45;30.38;;;9.10;99.90;;;;;;4971252;28;20390;-83
2022/02/10 00:36:27;;;;;;;65.28;36.05;;;9.00;99.90;;;;;;4965701;28;20034;-82
2022/02/10 00:39:05;;;;;;;56.22;34.17;;;9.00;99.90;;;;;;4974202;28;20394;-81
2022/02/10 00:41:32;;;;;;;49.90;31.08;;;9.00;99.90;;;;;;4992864;28;20346;-82
2022/02/10 00:44:50;;;;;;;50.40;32.05;;;9.00;99.90;;;;;;4957356;28;20037;-90
2022/02/10 00:47:47;;;;;;;50.20;30.13;;;9.00;99.90;;;;;;4935456;28;20045;-88
2022/02/10 00:50:17;;;;;;;53.55;31.42;;;9.00;99.90;;;;;;4973270;28;20062;-83
2022/02/10 00:52:44;;;;;;;51.63;31.48;;;9.00;99.90;;;;;;4958473;28;20038;-82
2022/02/10 00:55:14;;;;;;;54.38;32.95;;;9.00;99.90;;;;;;4956398;28;20054;-85
2022/02/10 00:57:41;;;;;;;40.38;25.20;;;8.90;99.90;;;;;;4955419;28;20034;-84
2022/02/10 01:14:33;;;;;;;43.60;26.85;;;9.00;99.90;;;;;;4979451;28;20049;-84
2022/02/10 01:30:31;;;;;;;42.30;26.23;;;9.00;99.90;;;;;;4966226;28;20060;-84
2022/02/10 01:33:01;;;;;;;40.75;26.70;;;9.00;99.90;;;;;;4977811;28;20026;-85
2022/02/10 01:35:29;;;;;;;40.42;24.83;;;9.00;99.90;;;;;;4968507;28;20478;-87
2022/02/10 01:37:56;;;;;;;44.72;26.48;;;8.90;99.90;;;;;;4949604;28;20050;-84
2022/02/10 01:40:52;;;;;;;39.42;24.73;;;9.00;99.90;;;;;;4945704;28;20046;-85
2022/02/10 02:05:17;;;;;;;37.85;22.67;;;8.90;99.90;;;;;;4974655;28;20514;-85
2022/02/10 02:07:44;;;;;;;38.85;24.35;;;8.90;99.90;;;;;;4989240;28;20034;-85
2022/02/10 02:10:10;;;;;;;37.30;23.30;;;8.90;99.90;;;;;;4948731;28;20034;-85
2022/02/10 02:12:37;;;;;;;39.53;25.70;;;8.90;99.90;;;;;;4973501;28;20042;-85
2022/02/10 02:15:04;;;;;;;34.38;22.60;;;8.90;99.90;;;;;;4976175;28;20050;-84
2022/02/10 02:17:31;;;;;;;33.22;21.63;;;8.90;99.90;;;;;;4974583;28;20405;-85
2022/02/10 02:19:58;;;;;;;31.10;19.33;;;8.90;99.90;;;;;;4947461;28;20037;-85
2022/02/10 02:22:24;;;;;;;32.75;21.40;;;8.90;99.90;;;;;;4992062;28;20038;-85
2022/02/10 02:24:51;;;;;;;31.67;19.60;;;8.90;99.90;;;;;;4965289;28;20035;-84
2022/02/10 02:27:19;;;;;;;29.80;18.67;;;8.90;99.90;;;;;;4967156;28;20042;-85
2022/02/10 02:29:55;;;;;;;30.63;18.90;;;8.90;99.90;;;;;;4974587;28;20037;-85
2022/02/10 02:32:32;;;;;;;34.13;21.38;;;8.90;99.90;;;;;;4977418;28;20038;-84
2022/02/10 02:35:21;;;;;;;31.67;18.63;;;8.90;99.90;;;;;;4965913;28;20043;-85
2022/02/10 02:38:02;;;;;;;27.25;16.95;;;8.90;99.90;;;;;;4973371;28;20038;-85
2022/02/10 03:05:53;;;;;;;29.48;18.75;;;8.90;99.90;;;;;;4984189;28;20489;-88
2022/02/10 03:08:24;;;;;;;26.92;17.70;;;8.80;99.90;;;;;;4964061;28;20050;-88
2022/02/10 03:13:27;;;;;;;27.20;17.70;;;8.80;99.90;;;;;;4980675;28;20042;-87
2022/02/10 04:08:03;;;;;;;24.30;17.45;;;8.80;99.90;;;;;;4966593;28;20030;-87
2022/02/10 04:11:06;;;;;;;26.70;18.13;;;8.80;99.90;;;;;;4974060;28;20057;-87
2022/02/10 04:21:13;;;;;;;29.30;20.85;;;8.70;99.90;;;;;;4965121;28;20049;-87
2022/02/10 04:56:49;;;;;;;38.55;26.48;;;8.70;99.90;;;;;;4966586;28;20524;-86
2022/02/10 05:16:21;;;;;;;34.17;24.48;;;8.70;99.90;;;;;;4979579;28;20038;-84
2022/02/10 05:21:36;;;;;;;30.48;22.00;;;8.70;99.90;;;;;;4977291;28;20030;-84
2022/02/10 05:34:40;;;;;;;33.90;22.13;;;8.60;99.90;;;;;;4977850;28;20042;-84
2022/02/10 05:37:07;;;;;;;37.88;24.70;;;8.60;99.90;;;;;;4958913;28;20409;-86
2022/02/10 05:39:38;;;;;;;36.30;25.48;;;8.60;99.90;;;;;;4961947;28;20038;-85
2022/02/10 05:42:51;;;;;;;38.15;28.38;;;8.60;99.90;;;;;;4956722;28;20054;-87
2022/02/10 05:45:25;;;;;;;35.92;24.77;;;8.60;99.90;;;;;;4959295;28;20037;-86
2022/02/10 05:56:06;;;;;;;42.58;28.83;;;8.60;99.90;;;;;;4963452;28;20038;-81
2022/02/10 06:48:36;;;;;;;47.75;29.80;;;8.50;99.90;;;;;;4964001;28;20038;-80
2022/02/10 06:57:18;;;;;;;56.58;33.92;;;8.50;99.90;;;;;;4949513;28;20053;-81
2022/02/10 07:12:59;;;;;;;62.97;32.92;;;8.40;99.90;;;;;;4959751;28;20058;-84
2022/02/10 07:48:06;;;;;;;6.70;3.42;;;7.80;99.90;;;;;;4992626;28;20037;-82
2022/02/10 07:56:51;;;;;;;4.32;2.15;;;7.60;99.90;;;;;;4962555;28;20049;-80
2022/02/10 08:49:40;;;;;;;3.40;1.50;;;7.60;99.90;;;;;;4956469;28;20115;-83
2022/02/10 08:54:53;;;;;;;5.20;0.60;;;7.50;99.90;;;;;;4927454;28;20031;-80
2022/02/10 08:57:16;;;;;;;7.82;0.95;;;7.50;99.90;;;;;;4972248;28;20027;-81
2022/02/10 09:47:59;;;;;;;9.18;0.90;;;8.00;99.90;;;;;;4964743;28;20509;-81
2022/02/10 09:59:13;;;;;;;5.05;1.05;;;7.80;99.90;;;;;;4903051;29;20090;-87
2022/02/10 10:01:48;;;;;;;8.73;1.73;;;7.80;99.90;;;;;;4960327;28;20414;-86
2022/02/10 10:04:20;;;;;;;4.93;1.10;;;7.90;99.90;;;;;;4948444;28;20038;-86
2022/02/10 10:07:03;;;;;;;5.50;1.20;;;7.90;99.90;;;;;;4962057;28;20382;-87
2022/02/10 10:14:57;;;;;;;9.07;1.00;;;8.10;99.90;;;;;;4996242;28;20049;-80
2022/02/10 10:20:23;;;;;;;11.15;2.55;;;8.20;99.90;;;;;;4978329;28;20041;-81
2022/02/10 10:46:57;;;;;;;7.63;1.48;;;8.90;99.90;;;;;;4945959;28;20297;-80
2022/02/10 10:56:33;;;;;;;6.95;1.25;;;9.70;99.90;;;;;;4991972;28;20038;-81
2022/02/10 11:39:21;;;;;;;7.90;2.28;;;10.40;99.90;;;;;;5002435;28;20034;-80
2022/02/10 11:42:09;;;;;;;8.15;2.55;;;10.50;99.90;;;;;;5005327;28;20034;-87
2022/02/10 11:59:59;;;;;;;8.68;3.00;;;10.50;99.90;;;;;;4994139;28;20037;-78
2022/02/10 12:31:14;;;;;;;5.47;2.25;;;10.30;99.90;;;;;;4984279;28;20026;-87
2022/02/10 14:18:20;;;;;;;6.07;0.73;;;9.10;99.90;;;;;;4960314;28;20053;-81
2022/02/10 14:20:58;;;;;;;9.90;0.95;;;9.20;99.90;;;;;;4951849;28;20038;-81
2022/02/10 14:28:30;;;;;;;4.38;0.70;;;9.10;99.90;;;;;;4991977;28;20030;-80
2022/02/10 14:30:58;;;;;;;7.95;0.75;;;9.10;99.90;;;;;;4944036;28;20485;-80
2022/02/10 14:33:38;;;;;;;6.38;1.33;;;9.10;99.90;;;;;;4999891;28;20033;-80
2022/02/10 14:36:21;;;;;;;6.05;0.70;;;9.10;99.90;;;;;;4965210;28;20581;-80
2022/02/10 14:39:17;;;;;;;3.08;0.60;;;9.00;99.90;;;;;;4944776;28;20030;-80
2022/02/10 14:42:19;;;;;;;6.53;1.00;;;8.90;99.90;;;;;;4994366;28;20052;-80
2022/02/10 15:18:10;;;;;;;8.57;0.80;;;9.00;99.90;;;;;;4965593;28;20054;-83
2022/02/10 16:18:18;;;;;;;6.63;0.73;;;8.00;99.90;;;;;;4978257;28;20478;-78
2022/02/10 16:20:57;;;;;;;3.17;0.60;;;8.00;99.90;;;;;;4964837;28;20052;-82
2022/02/10 16:23:25;;;;;;;5.78;0.40;;;8.00;99.90;;;;;;4982130;28;20038;-79
2022/02/10 16:26:09;;;;;;;7.30;0.82;;;7.90;99.90;;;;;;4966556;28;20041;-78
2022/02/10 16:28:38;;;;;;;5.30;1.00;;;7.80;99.90;;;;;;4961659;28;20026;-85
2022/02/10 16:31:04;;;;;;;4.47;0.80;;;7.80;99.90;;;;;;4946842;28;20054;-85
2022/02/10 16:33:32;;;;;;;6.80;0.85;;;7.80;99.90;;;;;;4981825;28;20045;-81
2022/02/10 16:36:00;;;;;;;4.68;0.40;;;7.80;99.90;;;;;;4981170;28;20046;-80
2022/02/10 16:38:27;;;;;;;4.57;0.60;;;7.70;99.90;;;;;;4979476;28;20482;-82
2022/02/10 16:40:57;;;;;;;5.35;0.32;;;7.70;99.90;;;;;;4963729;28;20049;-84
2022/02/10 16:43:25;;;;;;;5.00;0.50;;;7.70;99.90;;;;;;4964653;28;20030;-82
2022/02/10 16:45:52;;;;;;;3.05;0.73;;;7.60;99.90;;;;;;5006420;28;20035;-86
2022/02/10 16:48:18;;;;;;;5.78;0.70;;;7.60;99.90;;;;;;4971492;28;20536;-82
2022/02/10 16:50:45;;;;;;;4.25;0.70;;;7.50;99.90;;;;;;5002879;28;20397;-83
2022/02/10 16:53:16;;;;;;;4.13;0.50;;;7.50;99.90;;;;;;4955774;28;20038;-83
2022/02/10 16:58:25;;;;;;;6.07;0.43;;;7.50;99.90;;;;;;4965326;28;20046;-82
2022/02/10 17:20:26;;;;;;;4.97;0.80;;;7.20;99.90;;;;;;4977227;28;20026;-79
2022/02/10 17:25:46;;;;;;;7.20;1.27;;;7.20;99.90;;;;;;4977284;28;20041;-80
2022/02/10 17:28:13;;;;;;;4.78;0.90;;;7.20;99.90;;;;;;4957164;28;20042;-80
2022/02/10 17:33:39;;;;;;;5.00;0.70;;;7.20;99.90;;;;;;4976126;28;20033;-83
2022/02/10 17:36:27;;;;;;;5.18;0.60;;;7.20;99.90;;;;;;4960978;28;20045;-79
2022/02/10 17:54:33;;;;;;;5.65;0.70;;;7.00;99.90;;;;;;4979386;28;20485;-83
2022/02/10 17:57:00;;;;;;;8.52;0.57;;;6.90;99.90;;;;;;4973691;28;20046;-80
2022/02/10 17:59:28;;;;;;;6.07;1.02;;;7.00;99.90;;;;;;4977973;28;20042;-80
2022/02/10 18:01:55;;;;;;;5.63;0.50;;;6.90;99.90;;;;;;4961660;28;20045;-84
2022/02/10 18:04:23;;;;;;;5.78;0.57;;;6.90;99.90;;;;;;4974662;28;20031;-80
2022/02/10 18:06:54;;;;;;;4.97;0.80;;;6.90;99.90;;;;;;4990269;28;20042;-79
2022/02/10 18:14:51;;;;;;;5.18;0.82;;;6.80;99.90;;;;;;4979262;28;20058;-75
2022/02/10 18:17:26;;;;;;;7.90;0.70;;;6.80;99.90;;;;;;4988117;28;20046;-78
2022/02/10 18:20:01;;;;;;;5.03;0.75;;;6.80;99.90;;;;;;4959374;28;20034;-76
2022/02/10 18:22:45;;;;;;;5.65;0.60;;;6.80;99.90;;;;;;4991324;28;20064;-76
2022/02/10 18:28:02;;;;;;;5.85;1.00;;;6.80;99.90;;;;;;4980607;28;20042;-86
2022/02/10 19:09:09;;;;;;;7.18;2.13;;;6.50;99.90;;;;;;4988047;28;20405;-80
2022/02/10 19:11:44;;;;;;;6.15;1.10;;;6.50;99.90;;;;;;4943502;28;20035;-82
2022/02/10 19:14:11;;;;;;;11.20;0.93;;;6.40;99.90;;;;;;4977377;28;20038;-81
2022/02/10 19:16:38;;;;;;;5.10;1.00;;;6.40;99.90;;;;;;4961155;28;20038;-84
2022/02/10 19:19:07;;;;;;;9.10;1.60;;;6.40;99.90;;;;;;4943266;28;20034;-81
2022/02/10 19:21:34;;;;;;;13.35;2.28;;;6.40;99.90;;;;;;4961489;28;20061;-86
2022/02/10 19:24:01;;;;;;;10.15;1.40;;;6.40;99.90;;;;;;4965063;28;20060;-81
2022/02/10 19:26:27;;;;;;;7.28;1.77;;;6.40;99.90;;;;;;4964784;28;20057;-81
2022/02/10 19:28:57;;;;;;;12.45;1.00;;;6.30;99.90;;;;;;4989936;28;20386;-81
2022/02/10 19:31:25;;;;;;;4.50;0.95;;;6.30;99.90;;;;;;4976529;28;20599;-81
2022/02/10 19:33:53;;;;;;;3.45;1.02;;;6.30;99.90;;;;;;4977799;28;20046;-81
2022/02/10 19:36:20;;;;;;;6.60;0.90;;;6.30;99.90;;;;;;4961835;28;20049;-81
2022/02/10 19:38:46;;;;;;;6.43;0.90;;;6.20;99.90;;;;;;4956623;28;20406;-80
2022/02/10 19:41:13;;;;;;;4.82;0.80;;;6.20;99.90;;;;;;4942625;28;20030;-80
2022/02/10 19:43:42;;;;;;;5.93;1.10;;;6.20;99.90;;;;;;4962234;28;20039;-81
2022/02/10 19:46:11;;;;;;;10.00;1.15;;;6.20;99.90;;;;;;4965869;28;20040;-81
2022/02/10 19:48:40;;;;;;;6.88;0.80;;;6.10;99.90;;;;;;4963493;28;20042;-80
2022/02/10 19:51:07;;;;;;;6.88;0.82;;;6.10;99.90;;;;;;4960633;28;20038;-81
2022/02/10 19:53:34;;;;;;;5.20;1.20;;;6.10;99.90;;;;;;4980093;28;20047;-81
2022/02/10 19:56:01;;;;;;;9.82;1.00;;;6.00;99.90;;;;;;4963821;28;20050;-80
2022/02/10 19:58:30;;;;;;;7.57;0.85;;;6.00;99.90;;;;;;4993666;28;20397;-84
2022/02/10 20:00:59;;;;;;;5.38;0.85;;;6.00;99.90;;;;;;4965686;28;20061;-82
2022/02/10 20:03:28;;;;;;;7.88;1.10;;;6.00;99.90;;;;;;4978012;28;20031;-84
2022/02/10 20:05:55;;;;;;;10.27;0.80;;;6.00;99.90;;;;;;4979020;28;20026;-84
2022/02/10 20:08:25;;;;;;;5.40;0.60;;;6.00;99.90;;;;;;4973217;28;20034;-86
2022/02/10 20:10:56;;;;;;;8.13;0.70;;;6.00;99.90;;;;;;4971873;28;20045;-82
2022/02/10 20:13:24;;;;;;;3.97;0.68;;;6.00;99.90;;;;;;4979999;28;20038;-77
2022/02/10 20:15:51;;;;;;;4.15;1.00;;;6.00;99.90;;;;;;4961033;28;20046;-83
2022/02/10 20:18:21;;;;;;;6.90;0.90;;;6.00;99.90;;;;;;4971637;28;20042;-86
2022/02/10 20:20:53;;;;;;;5.68;1.15;;;6.00;99.90;;;;;;4959675;28;20054;-81
2022/02/10 20:23:26;;;;;;;14.47;3.67;;;5.90;99.90;;;;;;4977660;28;20045;-85
2022/02/10 20:25:53;;;;;;;;;;;5.90;99.90;;;;;;4948100;28;20403;-84
2022/02/10 20:28:22;;;;;;;8.88;2.20;;;5.90;99.90;;;;;;4956777;28;20273;-83
2022/02/10 20:30:49;;;;;;;8.43;2.35;;;5.90;99.90;;;;;;4950495;28;20042;-82
2022/02/10 20:33:23;;;;;;;8.52;2.42;;;5.90;99.90;;;;;;4980994;28;20051;-84
2022/02/10 20:35:54;;;;;;;12.25;2.10;;;5.90;99.90;;;;;;4960129;28;20046;-80
2022/02/10 20:38:22;;;;;;;8.90;2.20;;;5.90;99.90;;;;;;4956111;28;20406;-83
2022/02/10 20:40:58;;;;;;;10.82;1.80;;;5.80;99.90;;;;;;4972260;28;20030;-82
2022/02/10 20:43:26;;;;;;;15.40;5.05;;;5.80;99.90;;;;;;4976007;28;20487;-83
2022/02/10 20:46:01;;;;;;;8.18;2.65;;;5.80;99.90;;;;;;4978447;28;20525;-84
2022/02/10 20:48:31;;;;;;;8.52;2.25;;;5.70;99.90;;;;;;4975462;28;20506;-83
2022/02/10 20:51:00;;;;;;;7.15;1.45;;;5.70;99.90;;;;;;4994297;28;20038;-84
2022/02/10 20:53:29;;;;;;;5.78;1.65;;;5.70;99.90;;;;;;4981492;28;20035;-83
2022/02/10 20:56:10;;;;;;;7.50;1.23;;;5.70;99.90;;;;;;4964643;28;20501;-79
2022/02/10 20:58:38;;;;;;;9.35;1.15;;;5.70;99.90;;;;;;4989013;28;20041;-84
2022/02/10 21:01:12;;;;;;;6.45;1.70;;;5.70;99.90;;;;;;4973911;28;20050;-85
2022/02/10 21:03:39;;;;;;;5.40;1.05;;;5.70;99.90;;;;;;4978078;28;20478;-79
2022/02/10 21:08:50;;;;;;;8.45;2.10;;;5.70;99.90;;;;;;4975110;28;20037;-80
2022/02/10 21:11:18;;;;;;;33.28;12.32;;;5.60;99.90;;;;;;4961953;28;20488;-81
2022/02/10 21:13:45;;;;;;;15.50;5.43;;;5.60;99.90;;;;;;4979195;28;20030;-83
2022/02/10 21:16:11;;;;;;;12.05;5.47;;;5.60;99.90;;;;;;4963938;28;20065;-80
2022/02/10 21:18:40;;;;;;;14.68;4.63;;;5.60;99.90;;;;;;4961449;28;20050;-81
2022/02/10 21:21:13;;;;;;;14.05;3.35;;;5.50;99.90;;;;;;4977080;28;20509;-82
2022/02/10 21:24:00;;;;;;;13.02;3.05;;;5.50;99.90;;;;;;4960277;28;20045;-81
2022/02/10 21:26:32;;;;;;;18.23;3.95;;;5.50;99.90;;;;;;4976318;28;20037;-81
2022/02/10 21:29:03;;;;;;;12.68;3.88;;;5.50;99.90;;;;;;4978197;28;20374;-82
2022/02/10 21:31:30;;;;;;;9.13;3.05;;;5.40;99.90;;;;;;4977781;28;20560;-88
2022/02/10 21:36:57;;;;;;;5.55;1.20;;;5.40;99.90;;;;;;4993914;28;20414;-80
2022/02/10 21:47:44;;;;;;;8.13;1.83;;;5.30;99.90;;;;;;4974843;28;20563;-79
2022/02/10 21:53:35;;;;;;;13.90;1.77;;;5.20;99.90;;;;;;4962848;28;20045;-81
2022/02/10 21:56:25;;;;;;;4.13;1.40;;;5.20;99.90;;;;;;4962732;28;20149;-81
2022/02/10 22:09:17;;;;;;;11.18;2.13;;;5.30;99.90;;;;;;4960214;28;20043;-84
2022/02/10 22:19:46;;;;;;;6.28;2.05;;;5.20;99.90;;;;;;4986556;28;20035;-83
2022/02/10 22:22:21;;;;;;;;;;;5.20;99.90;;;;;;4960216;28;20513;-84
2022/02/10 22:24:48;;;;;;;7.97;1.88;;;5.10;99.90;;;;;;4987062;28;20336;-83
2022/02/10 22:27:22;;;;;;;14.35;2.15;;;5.10;99.90;;;;;;4942968;28;20050;-85
2022/02/10 22:29:53;;;;;;;8.48;1.67;;;5.10;99.90;;;;;;4974296;28;20272;-84
2022/02/10 22:32:43;;;;;;;11.33;2.77;;;5.00;99.90;;;;;;4955324;28;20038;-86
2022/02/10 22:35:11;;;;;;;7.45;2.22;;;4.90;99.90;;;;;;4951896;28;20050;-83
2022/02/10 22:37:41;;;;;;;8.57;2.30;;;4.80;99.90;;;;;;4956680;28;20046;-83
2022/02/10 22:40:24;;;;;;;7.68;2.10;;;4.80;99.90;;;;;;4944010;28;20426;-84
2022/02/10 22:42:51;;;;;;;13.38;3.00;;;4.80;99.90;;;;;;4974270;28;21221;-84
2022/02/10 22:45:18;;;;;;;9.18;2.53;;;4.70;99.90;;;;;;4973065;28;20030;-83
2022/02/10 22:47:45;;;;;;;6.53;2.17;;;4.60;99.90;;;;;;4954420;28;20042;-82
2022/02/10 22:50:11;;;;;;;8.90;2.42;;;4.60;99.90;;;;;;4946632;28;20049;-83
2022/02/10 22:52:38;;;;;;;7.50;1.92;;;4.50;99.90;;;;;;4959577;28;20497;-84
2022/02/10 22:55:06;;;;;;;7.22;2.00;;;4.50;99.90;;;;;;4956154;28;20510;-83
2022/02/10 22:57:33;;;;;;;11.57;2.38;;;4.40;99.90;;;;;;4914837;28;20504;-84
2022/02/10 23:00:05;;;;;;;9.52;1.35;;;4.40;99.90;;;;;;4974561;28;20053;-83
2022/02/10 23:02:32;;;;;;;8.63;2.30;;;4.40;99.90;;;;;;4957370;28;20062;-82
2022/02/10 23:04:59;;;;;;;8.02;1.98;;;4.30;99.90;;;;;;4946549;28;20042;-84
2022/02/10 23:07:26;;;;;;;5.50;1.63;;;4.30;99.90;;;;;;4942599;28;20045;-86
2022/02/10 23:12:39;;;;;;;10.63;2.00;;;4.20;99.90;;;;;;4969293;28;20037;-83
2022/02/10 23:15:06;;;;;;;9.45;2.13;;;4.20;99.90;;;;;;4979986;28;20041;-82
2022/02/10 23:17:33;;;;;;;7.25;2.00;;;4.20;99.90;;;;;;4975596;28;20422;-84
2022/02/10 23:20:06;;;;;;;9.40;2.30;;;4.10;99.90;;;;;;4950379;28;20050;-84
2022/02/10 23:23:09;;;;;;;6.20;1.67;;;4.10;99.90;;;;;;4981342;28;20035;-78
2022/02/10 23:26:09;;;;;;;11.52;2.00;;;4.10;99.90;;;;;;4962090;28;20045;-89
2022/02/10 23:29:49;;;;;;;6.10;1.30;;;4.00;99.90;;;;;;4984954;28;20038;-86
2022/02/10 23:32:23;;;;;;;5.30;1.42;;;4.00;99.90;;;;;;4961393;28;20445;-91
2022/02/10 23:34:50;;;;;;;9.10;1.88;;;4.00;99.90;;;;;;4948288;28;20107;-87
2022/02/10 23:37:22;;;;;;;5.77;1.40;;;4.00;99.90;;;;;;4960173;28;20061;-85
2022/02/10 23:39:49;;;;;;;6.93;2.33;;;4.00;99.90;;;;;;4962621;28;20042;-84
2022/02/10 23:42:17;;;;;;;10.20;1.60;;;4.00;99.90;;;;;;4960672;28;20047;-82
2022/02/10 23:44:47;;;;;;;6.95;1.58;;;3.90;99.90;;;;;;4972447;28;20486;-83
2022/02/10 23:47:23;;;;;;;3.90;1.60;;;3.90;99.90;;;;;;4971013;28;21442;-85
2022/02/10 23:49:52;;;;;;;9.10;2.25;;;3.90;99.90;;;;;;4945516;28;20378;-83
2022/02/10 23:52:24;;;;;;;7.25;1.98;;;3.90;99.90;;;;;;4993120;28;20684;-85
2022/02/10 23:54:58;;;;;;;5.07;1.10;;;3.90;99.90;;;;;;4944328;28;20478;-84
2022/02/10 23:57:39;;;;;;;8.83;1.63;;;3.80;99.90;;;;;;4964239;28;20517;-85
